Time;durP1;ratioP1;P1;durP2;ratioP2;P2;SDS_P1;SDS_P2;PMS_P1;PMS_P2;Temp;Humidity;BMP_temperature;BMP_pressure;BME280_temperature;BME280_humidity;BME280_pressure;Samples;Min_cycle;Max_cycle;Signal;HPM_P1;HPM_P2
2022/07/03 00:01:47;;;;;;;2.88;1.90;;;;;;;17.18;66.06;101617.00;5052362;28;20052;-80
2022/07/03 00:04:14;;;;;;;1.98;1.52;;;;;;;17.15;66.50;101604.69;5052447;28;20057;-79
2022/07/03 00:06:42;;;;;;;3.33;1.58;;;;;;;17.15;66.41;101607.34;5050996;28;20061;-79
2022/07/03 00:09:09;;;;;;;3.03;1.60;;;;;;;17.14;66.26;101607.44;5051181;28;20041;-78
2022/07/03 00:11:36;;;;;;;3.20;1.60;;;;;;;17.13;66.25;101603.88;5051789;28;20049;-77
2022/07/03 00:14:04;;;;;;;2.92;1.55;;;;;;;17.15;66.29;101594.03;5051889;28;20053;-78
2022/07/03 00:16:31;;;;;;;8.02;1.50;;;;;;;17.14;66.43;101592.31;5052623;28;20089;-79
2022/07/03 00:18:58;;;;;;;5.15;1.52;;;;;;;17.13;66.13;101590.56;5051041;28;20096;-79
2022/07/03 00:21:41;;;;;;;2.65;1.60;;;;;;;17.10;65.89;101581.88;5051867;28;20045;-79
2022/07/03 00:24:23;;;;;;;4.25;1.58;;;;;;;17.05;66.60;101590.06;5051768;28;20531;-79
2022/07/03 00:26:53;;;;;;;2.90;1.70;;;;;;;17.00;66.46;101587.63;5051557;28;20050;-79
2022/07/03 00:29:22;;;;;;;2.92;1.70;;;;;;;16.94;66.58;101589.69;5054395;28;20129;-79
2022/07/03 00:31:50;;;;;;;4.05;2.00;;;;;;;16.89;66.97;101593.38;5051594;28;20372;-79
2022/07/03 00:34:20;;;;;;;3.28;1.70;;;;;;;16.83;67.08;101598.13;5050652;28;20045;-78
2022/07/03 00:36:48;;;;;;;2.97;1.95;;;;;;;16.77;67.26;101599.28;5051114;28;20046;-78
2022/07/03 00:39:16;;;;;;;3.13;2.05;;;;;;;16.73;67.51;101590.56;5051894;28;20042;-77
2022/07/03 00:41:46;;;;;;;4.50;1.80;;;;;;;16.72;67.72;101591.50;5051836;28;20038;-78
2022/07/03 00:44:13;;;;;;;4.60;2.03;;;;;;;16.71;68.25;101587.09;5051628;28;20056;-79
2022/07/03 00:46:41;;;;;;;4.03;2.05;;;;;;;16.68;68.00;101591.69;5051582;28;20049;-78
2022/07/03 00:49:10;;;;;;;3.78;1.95;;;;;;;16.64;67.85;101582.09;5050943;28;20104;-79
2022/07/03 00:51:40;;;;;;;2.00;1.80;;;;;;;16.60;68.25;101589.38;5050629;28;20038;-78
2022/07/03 00:54:19;;;;;;;4.63;2.38;;;;;;;16.56;68.57;101587.75;5051216;28;20128;-77
2022/07/03 00:56:52;;;;;;;4.47;2.50;;;;;;;16.52;68.86;101589.69;5051510;28;20112;-77
2022/07/03 00:59:20;;;;;;;4.28;2.00;;;;;;;16.45;69.24;101580.25;5051001;28;20045;-77
2022/07/03 01:02:00;;;;;;;4.03;1.80;;;;;;;16.37;69.31;101579.72;5042193;28;20073;-78
2022/07/03 01:04:52;;;;;;;3.58;1.80;;;;;;;16.29;69.67;101578.22;5049968;28;20095;-76
2022/07/03 01:07:44;;;;;;;3.45;1.90;;;;;;;16.24;69.27;101580.25;5050513;28;20064;-77
2022/07/03 01:10:55;;;;;;;5.95;2.25;;;;;;;16.18;69.73;101584.94;5045713;28;20056;-77
2022/07/03 01:13:43;;;;;;;2.85;2.17;;;;;;;16.13;70.09;101585.16;5026633;28;21040;-78
2022/07/03 01:16:31;;;;;;;4.10;2.05;;;;;;;16.08;70.31;101584.47;5061687;28;20111;-77
2022/07/03 01:19:27;;;;;;;4.88;2.30;;;;;;;16.04;69.90;101583.72;5049973;28;20045;-78
2022/07/03 01:22:32;;;;;;;3.35;2.25;;;;;;;16.01;69.84;101580.34;5050951;28;20672;-79
2022/07/03 01:25:38;;;;;;;;;;;;;;;15.96;69.70;101585.84;5052073;28;20045;-78
2022/07/03 01:28:23;;;;;;;4.13;2.00;;;;;;;15.89;70.03;101577.25;5051660;28;19925;-79
2022/07/03 01:30:54;;;;;;;2.60;2.20;;;;;;;15.88;70.38;101578.16;5050687;28;20547;-78
2022/07/03 01:33:24;;;;;;;5.13;2.40;;;;;;;15.81;70.77;101569.56;5045295;28;20034;-79
2022/07/03 01:36:12;;;;;;;3.40;2.63;;;;;;;15.79;71.09;101575.84;5051587;28;20525;-78
2022/07/03 01:38:40;;;;;;;3.50;2.30;;;;;;;15.74;71.62;101576.03;5049189;28;20529;-78
2022/07/03 01:41:10;;;;;;;4.43;2.80;;;;;;;15.71;72.20;101578.84;5053170;28;20069;-78
2022/07/03 01:43:57;;;;;;;6.38;2.90;;;;;;;15.66;72.33;101576.38;5048659;28;20817;-76
2022/07/03 01:46:30;;;;;;;3.70;2.45;;;;;;;15.63;71.98;101575.59;5051546;28;20041;-78
2022/07/03 01:48:59;;;;;;;3.22;2.50;;;;;;;15.59;71.70;101577.53;5044920;28;20042;-77
2022/07/03 01:51:28;;;;;;;6.00;2.53;;;;;;;15.56;71.60;101576.78;5047154;28;20042;-78
2022/07/03 01:53:59;;;;;;;2.67;2.40;;;;;;;15.51;72.19;101575.19;5050899;28;20489;-78
2022/07/03 01:56:32;;;;;;;5.15;2.78;;;;;;;15.49;72.07;101570.84;5049901;28;20861;-78
2022/07/03 01:58:59;;;;;;;3.72;2.10;;;;;;;15.46;72.31;101568.31;5052031;28;20508;-76
2022/07/03 02:01:48;;;;;;;4.60;2.50;;;;;;;15.44;72.40;101578.16;5050851;28;20057;-77
2022/07/03 02:04:35;;;;;;;3.25;2.33;;;;;;;15.41;72.71;101576.47;5050980;28;20048;-77
2022/07/03 02:07:15;;;;;;;8.13;4.90;;;;;;;15.48;79.67;101593.91;5045724;28;20590;-78
2022/07/03 02:10:08;;;;;;;6.22;4.90;;;;;;;15.50;79.10;101596.50;5051434;28;20045;-77
2022/07/03 02:12:47;;;;;;;6.85;4.90;;;;;;;15.47;77.81;101591.28;5068574;28;20045;-77
2022/07/03 02:15:36;;;;;;;6.47;4.93;;;;;;;15.45;77.29;101603.78;5066838;28;20128;-76
2022/07/03 02:18:28;;;;;;;6.40;4.85;;;;;;;15.41;76.50;101603.03;5050469;28;20135;-77
2022/07/03 02:21:10;;;;;;;5.38;4.80;;;;;;;15.34;76.52;101598.88;5050573;28;20115;-78
2022/07/03 02:23:55;;;;;;;6.55;4.82;;;;;;;15.30;76.49;101590.16;5049974;28;20472;-77
2022/07/03 02:26:29;;;;;;;;;;;;;;;15.27;76.19;101597.38;5045127;28;20049;-74
2022/07/03 02:29:05;;;;;;;8.98;5.32;;;;;;;15.23;76.20;101591.31;5049366;28;19932;-82
2022/07/03 02:31:41;;;;;;;6.13;5.53;;;;;;;15.25;76.16;101594.81;5042286;28;20874;-79
2022/07/03 02:34:17;;;;;;;8.00;5.38;;;;;;;15.26;76.10;101601.81;5050476;28;20045;-80
2022/07/03 02:36:55;;;;;;;6.72;5.35;;;;;;;15.24;75.99;101598.38;5049715;28;20056;-80
2022/07/03 02:39:45;;;;;;;7.03;5.22;;;;;;;15.22;75.70;101593.09;5039421;28;20108;-75
2022/07/03 02:42:37;;;;;;;8.45;5.45;;;;;;;15.22;75.59;101585.13;5045225;28;21153;-80
2022/07/03 02:45:08;;;;;;;7.72;5.45;;;;;;;15.24;75.52;101594.84;5050129;28;20053;-80
2022/07/03 02:48:00;;;;;;;9.43;6.00;;;;;;;15.22;75.27;101586.94;5049863;28;20049;-81
2022/07/03 02:50:31;;;;;;;7.95;5.57;;;;;;;15.26;75.19;101585.88;5050126;28;20053;-81
2022/07/03 02:53:06;;;;;;;8.30;5.50;;;;;;;15.27;75.25;101592.06;5050115;28;20041;-79
2022/07/03 02:55:46;;;;;;;7.80;5.97;;;;;;;15.26;75.05;101588.53;5049482;28;20087;-81
2022/07/03 02:58:50;;;;;;;8.75;5.82;;;;;;;15.27;75.29;101590.28;5047979;28;20096;-80
2022/07/03 03:01:30;;;;;;;7.63;5.78;;;;;;;15.26;75.54;101593.00;5048967;28;20050;-77
2022/07/03 03:04:34;;;;;;;6.72;5.70;;;;;;;15.25;75.40;101593.91;5049173;28;20044;-78
2022/07/03 03:07:08;;;;;;;9.75;6.43;;;;;;;15.22;75.40;101593.09;5046419;28;20060;-77
2022/07/03 03:09:47;;;;;;;8.07;5.90;;;;;;;15.22;75.60;101590.44;5049105;28;20085;-77
2022/07/03 03:12:27;;;;;;;7.65;6.15;;;;;;;15.22;75.53;101585.13;5046887;28;20103;-77
2022/07/03 03:15:04;;;;;;;6.97;6.22;;;;;;;15.20;75.59;101592.31;5050044;28;20064;-78
2022/07/03 03:17:42;;;;;;;6.35;5.55;;;;;;;15.19;75.79;101593.25;5048345;28;20538;-78
2022/07/03 03:20:18;;;;;;;8.95;6.07;;;;;;;15.18;76.07;101596.81;5036069;28;20077;-78
2022/07/03 03:23:18;;;;;;;9.88;6.72;;;;;;;15.16;75.88;101596.00;5041073;28;20049;-77
2022/07/03 03:25:45;;;;;;;9.82;6.25;;;;;;;15.16;76.15;101603.13;5049769;28;20501;-78
2022/07/03 03:28:14;;;;;;;9.27;6.43;;;;;;;15.16;76.39;101609.28;5044978;28;20073;-77
2022/07/03 03:30:41;;;;;;;6.90;6.20;;;;;;;15.15;76.26;101609.34;5053002;28;20068;-76
2022/07/03 03:33:12;;;;;;;10.98;6.32;;;;;;;15.16;76.43;101598.66;5051511;28;20033;-77
2022/07/03 03:35:39;;;;;;;10.30;6.60;;;;;;;15.19;76.04;101613.59;5050962;28;20070;-77
2022/07/03 03:38:07;;;;;;;8.18;6.18;;;;;;;15.20;76.28;101612.69;5045967;28;20049;-77
2022/07/03 03:40:35;;;;;;;6.97;6.22;;;;;;;15.21;76.04;101609.97;5044530;28;20041;-77
2022/07/03 03:43:08;;;;;;;9.85;6.45;;;;;;;15.26;76.40;101612.44;5049327;28;20038;-76
2022/07/03 03:45:35;;;;;;;8.73;6.88;;;;;;;15.31;76.16;101614.94;5053287;28;20501;-77
2022/07/03 03:48:04;;;;;;;7.90;6.47;;;;;;;15.67;75.09;101617.09;5051835;28;20046;-76
2022/07/03 03:50:31;;;;;;;10.93;6.78;;;;;;;15.75;74.95;101619.47;5052467;28;21838;-76
2022/07/03 03:53:00;;;;;;;8.07;6.75;;;;;;;15.79;74.91;101616.63;5053267;28;20492;-75
2022/07/03 03:55:28;;;;;;;10.57;6.88;;;;;;;15.78;75.09;101612.22;5052456;28;20551;-76
2022/07/03 03:57:55;;;;;;;8.77;6.93;;;;;;;15.84;74.89;101614.66;5050665;28;20034;-75
2022/07/03 04:00:22;;;;;;;16.83;8.23;;;;;;;16.10;74.42;101615.41;5051462;28;20042;-75
2022/07/03 04:02:49;;;;;;;7.68;6.20;;;;;;;16.32;73.59;101613.63;5052054;28;20116;-76
2022/07/03 04:05:16;;;;;;;12.05;6.72;;;;;;;16.29;73.73;101618.13;5051639;28;20052;-76
2022/07/03 04:07:43;;;;;;;7.97;6.55;;;;;;;16.27;73.72;101617.38;5053372;28;20061;-79
2022/07/03 04:10:11;;;;;;;11.48;6.10;;;;;;;16.27;73.63;101622.69;5052952;28;20033;-79
2022/07/03 04:12:38;;;;;;;9.27;5.90;;;;;;;16.27;73.36;101612.03;5052730;28;20034;-80
2022/07/03 04:15:08;;;;;;;10.02;6.38;;;;;;;16.27;73.08;101614.72;5050825;28;20129;-77
2022/07/03 04:17:35;;;;;;;9.13;6.80;;;;;;;16.27;72.99;101617.38;5052367;28;20050;-76
2022/07/03 04:20:03;;;;;;;8.02;6.50;;;;;;;16.29;72.94;101614.63;5051651;28;20116;-75
2022/07/03 04:22:30;;;;;;;12.13;6.97;;;;;;;16.41;72.62;101623.88;5051491;28;20073;-78
2022/07/03 04:24:57;;;;;;;13.30;6.85;;;;;;;16.59;71.94;101615.09;5046784;28;20636;-78
2022/07/03 04:27:25;;;;;;;8.63;6.65;;;;;;;16.60;71.48;101613.31;5050493;28;20069;-78
2022/07/03 04:30:13;;;;;;;9.73;6.60;;;;;;;16.54;71.38;101630.41;5047957;28;20520;-78
2022/07/03 04:32:40;;;;;;;7.90;6.88;;;;;;;16.50;71.39;101626.16;5051745;28;20080;-77
2022/07/03 04:35:08;;;;;;;9.85;7.05;;;;;;;16.45;71.36;101626.34;5054535;28;20041;-77
2022/07/03 04:37:36;;;;;;;10.57;6.72;;;;;;;16.44;71.64;101624.59;5051531;28;20576;-77
2022/07/03 04:40:06;;;;;;;8.43;7.45;;;;;;;16.48;71.72;101624.50;5051449;28;20048;-75
2022/07/03 04:42:33;;;;;;;9.10;7.30;;;;;;;16.51;71.74;101637.69;5051352;28;20544;-78
2022/07/03 04:45:08;;;;;;;9.68;7.60;;;;;;;16.49;71.76;101632.41;5051120;28;20049;-77
2022/07/03 04:47:35;;;;;;;11.27;7.50;;;;;;;16.42;71.97;101628.28;5048887;28;20041;-77
2022/07/03 04:50:03;;;;;;;10.30;7.47;;;;;;;16.38;72.15;101624.88;5049940;28;20513;-77
2022/07/03 04:52:30;;;;;;;11.73;8.40;;;;;;;16.35;72.16;101627.66;5052382;28;20100;-76
2022/07/03 04:54:57;;;;;;;8.85;7.82;;;;;;;16.39;72.18;101633.72;5050601;28;20088;-77
2022/07/03 04:57:24;;;;;;;10.68;8.10;;;;;;;16.38;71.97;101632.88;5050152;28;20120;-77
2022/07/03 04:59:52;;;;;;;12.77;8.65;;;;;;;16.35;72.20;101630.31;5045122;28;20045;-77
2022/07/03 05:02:19;;;;;;;12.77;8.32;;;;;;;16.35;71.88;101634.78;5049663;28;20119;-78
2022/07/03 05:04:46;;;;;;;10.10;8.43;;;;;;;16.45;71.82;101637.00;5052355;28;20534;-77
2022/07/03 05:07:13;;;;;;;8.93;8.00;;;;;;;16.55;71.67;101642.78;5049583;28;20115;-78
2022/07/03 05:09:40;;;;;;;9.52;8.52;;;;;;;16.64;71.18;101632.69;5049419;28;20097;-76
2022/07/03 05:12:08;;;;;;;9.18;7.85;;;;;;;16.74;71.05;101636.69;5047214;28;20045;-77
2022/07/03 05:14:35;;;;;;;10.73;8.35;;;;;;;16.92;70.81;101641.19;5050448;28;20530;-77
2022/07/03 05:17:02;;;;;;;10.65;8.25;;;;;;;17.06;70.70;101629.94;5051044;28;20055;-76
2022/07/03 05:19:31;;;;;;;8.80;7.90;;;;;;;17.29;70.52;101640.50;5050710;28;20064;-76
2022/07/03 05:21:58;;;;;;;9.90;8.50;;;;;;;17.99;69.13;101646.13;5049892;28;20088;-77
2022/07/03 05:24:25;;;;;;;10.32;7.47;;;;;;;19.08;65.13;101638.81;5051188;28;20493;-78
2022/07/03 05:26:53;;;;;;;9.45;6.45;;;;;;;19.49;64.44;101645.53;5049477;28;20127;-78
2022/07/03 05:29:20;;;;;;;8.27;6.38;;;;;;;20.04;62.22;101646.94;5051534;28;20045;-78
2022/07/03 05:31:48;;;;;;;7.68;5.88;;;;;;;19.90;61.54;101641.50;5047869;28;20120;-75
2022/07/03 05:34:15;;;;;;;9.15;6.57;;;;;;;21.23;58.51;101639.84;5045658;28;20734;-77
2022/07/03 05:36:42;;;;;;;9.48;6.35;;;;;;;23.29;52.16;101635.22;5049645;28;20471;-78
2022/07/03 05:41:55;;;;;;;7.32;5.55;;;;;;;26.68;44.53;101627.53;5047608;28;20061;-76
2022/07/03 05:44:22;;;;;;;6.80;5.28;;;;;;;27.77;42.60;101627.00;5047844;28;20073;-77
2022/07/03 05:46:49;;;;;;;9.38;5.18;;;;;;;28.90;40.09;101627.34;5047879;28;20042;-78
2022/07/03 05:49:16;;;;;;;7.80;4.55;;;;;;;28.52;40.19;101629.13;5047124;28;20521;-75
2022/07/03 05:51:43;;;;;;;6.45;4.43;;;;;;;27.93;40.29;101634.56;5036780;28;20050;-76
2022/07/03 05:54:11;;;;;;;9.25;4.00;;;;;;;26.74;40.72;101631.56;5042531;28;20058;-77
2022/07/03 05:56:38;;;;;;;5.05;4.35;;;;;;;27.97;39.96;101637.84;5048089;28;20588;-77
2022/07/03 05:59:05;;;;;;;8.23;4.35;;;;;;;29.20;37.37;101629.94;5048378;28;20092;-76
2022/07/03 06:01:32;;;;;;;5.13;3.90;;;;;;;30.10;35.49;101631.97;5047892;28;20049;-77
2022/07/03 06:03:59;;;;;;;7.15;4.20;;;;;;;30.67;34.25;101637.03;5047213;28;20505;-77
2022/07/03 06:06:27;;;;;;;7.20;4.53;;;;;;;31.12;33.35;101630.50;5046890;28;20532;-77
2022/07/03 06:08:54;;;;;;;9.02;4.20;;;;;;;31.33;32.21;101622.91;5048284;28;20460;-77
2022/07/03 06:11:21;;;;;;;4.65;3.95;;;;;;;31.35;32.33;101629.88;5047295;28;20065;-76
2022/07/03 06:13:51;;;;;;;4.90;3.72;;;;;;;31.47;32.54;101635.03;5049000;28;20559;-77
2022/07/03 06:16:18;;;;;;;8.82;3.80;;;;;;;31.56;31.89;101634.03;5046224;28;20068;-76
2022/07/03 06:18:46;;;;;;;6.35;3.50;;;;;;;31.41;31.37;101634.69;5045058;28;20065;-78
2022/07/03 06:21:13;;;;;;;6.80;3.70;;;;;;;30.98;32.15;101637.34;5041224;28;20046;-75
2022/07/03 06:23:43;;;;;;;4.80;3.67;;;;;;;29.60;34.00;101642.31;5041160;28;20103;-76
2022/07/03 06:26:16;;;;;;;4.97;3.97;;;;;;;26.92;38.81;101653.47;5040088;28;20034;-76
2022/07/03 06:28:44;;;;;;;5.03;3.63;;;;;;;24.85;43.21;101657.78;5042999;28;20120;-76
2022/07/03 06:31:11;;;;;;;3.83;3.50;;;;;;;23.44;46.75;101657.44;5040169;28;20178;-76
2022/07/03 06:33:38;;;;;;;7.60;4.22;;;;;;;22.43;49.75;101649.16;5034898;28;20579;-75
2022/07/03 06:36:09;;;;;;;6.35;3.70;;;;;;;21.80;51.59;101664.91;5040488;28;20050;-76
2022/07/03 06:38:36;;;;;;;5.88;3.17;;;;;;;21.39;53.51;101666.56;5038245;28;20037;-77
2022/07/03 06:41:09;;;;;;;8.98;2.38;;;;;;;21.04;53.15;101666.09;5041286;28;20129;-74
2022/07/03 06:43:36;;;;;;;5.40;2.42;;;;;;;20.72;54.19;101675.09;5034415;28;20736;-77
2022/07/03 06:46:03;;;;;;;5.97;2.20;;;;;;;20.50;55.30;101670.16;5053060;28;20053;-74
2022/07/03 06:48:31;;;;;;;4.45;2.60;;;;;;;20.33;55.78;101665.78;5046991;28;20056;-76
2022/07/03 06:51:00;;;;;;;6.35;2.53;;;;;;;20.25;56.48;101668.91;5042348;28;20451;-77
2022/07/03 06:53:27;;;;;;;5.65;2.00;;;;;;;20.21;56.88;101669.19;5047338;28;20116;-77
2022/07/03 06:55:54;;;;;;;6.57;2.30;;;;;;;20.17;56.69;101676.53;5048181;28;20037;-77
2022/07/03 06:58:21;;;;;;;4.18;2.13;;;;;;;20.19;57.08;101666.59;5050163;28;20055;-77
2022/07/03 07:00:48;;;;;;;4.80;2.00;;;;;;;20.23;56.92;101669.97;5051254;28;20065;-77
2022/07/03 07:03:25;;;;;;;5.35;1.85;;;;;;;20.24;56.99;101672.56;5051222;28;20041;-76
2022/07/03 07:05:52;;;;;;;5.65;1.83;;;;;;;20.29;56.68;101675.81;5052526;28;20052;-78
2022/07/03 07:08:20;;;;;;;6.65;1.60;;;;;;;20.35;56.77;101673.75;5052239;28;20065;-77
2022/07/03 07:10:47;;;;;;;4.63;1.70;;;;;;;20.34;56.91;101675.56;5053830;28;20072;-78
2022/07/03 07:13:14;;;;;;;3.90;1.63;;;;;;;20.31;56.92;101676.59;5053044;28;20951;-77
2022/07/03 07:15:41;;;;;;;4.57;1.73;;;;;;;20.31;57.29;101667.69;5053516;28;20045;-76
2022/07/03 07:18:09;;;;;;;5.65;1.67;;;;;;;20.36;57.28;101676.34;5049887;28;20046;-76
2022/07/03 07:20:38;;;;;;;3.45;1.95;;;;;;;20.35;57.30;101671.94;5048035;28;20046;-75
2022/07/03 07:23:05;;;;;;;5.22;1.92;;;;;;;20.39;57.94;101675.28;5048764;28;20123;-76
2022/07/03 07:25:32;;;;;;;3.63;1.60;;;;;;;20.42;57.48;101685.81;5047901;28;20045;-75
2022/07/03 07:27:59;;;;;;;4.93;1.92;;;;;;;20.45;57.06;101678.47;5047632;28;20037;-77
2022/07/03 07:30:26;;;;;;;5.78;2.20;;;;;;;20.45;56.80;101678.47;5048840;28;20501;-75
2022/07/03 07:32:54;;;;;;;6.88;2.20;;;;;;;20.42;57.32;101670.59;5047472;28;20041;-77
2022/07/03 07:35:22;;;;;;;5.28;1.90;;;;;;;20.44;57.01;101686.59;5044832;28;20041;-75
2022/07/03 07:37:51;;;;;;;5.32;1.77;;;;;;;20.51;56.78;101681.72;5044584;28;20580;-78
2022/07/03 07:40:19;;;;;;;6.35;1.50;;;;;;;20.58;56.62;101683.97;5046194;28;20579;-77
2022/07/03 07:42:46;;;;;;;4.57;1.60;;;;;;;20.63;55.82;101683.69;5044037;28;20129;-78
2022/07/03 07:45:13;;;;;;;5.35;1.67;;;;;;;20.68;54.94;101688.75;5048516;28;20042;-77
2022/07/03 07:47:42;;;;;;;4.47;1.65;;;;;;;20.70;55.43;101690.41;5047974;28;20575;-78
2022/07/03 07:50:10;;;;;;;5.60;2.15;;;;;;;20.81;55.73;101686.25;5042878;28;20158;-79
2022/07/03 07:52:38;;;;;;;4.70;1.77;;;;;;;20.89;54.89;101695.53;5041993;28;20077;-79
2022/07/03 07:55:06;;;;;;;5.55;2.17;;;;;;;20.94;55.55;101697.94;5033754;28;20070;-74
2022/07/03 07:57:45;;;;;;;5.70;2.17;;;;;;;21.01;55.68;101696.59;5039221;28;20042;-78
2022/07/03 08:00:18;;;;;;;4.47;2.60;;;;;;;21.10;55.85;101701.44;5033718;28;20041;-79
2022/07/03 08:05:37;;;;;;;9.73;2.33;;;;;;;21.23;55.67;101692.59;5035903;28;20050;-80
2022/07/03 08:08:07;;;;;;;4.40;2.30;;;;;;;21.33;55.72;101687.53;5033286;28;20054;-82
2022/07/03 08:10:42;;;;;;;4.97;2.20;;;;;;;21.41;55.29;101687.91;5044343;28;20045;-79
2022/07/03 08:13:11;;;;;;;3.28;1.52;;;;;;;21.46;54.74;101701.03;5045456;28;20077;-77
2022/07/03 08:15:41;;;;;;;3.13;1.83;;;;;;;21.56;53.89;101688.78;5042631;28;20429;-78
2022/07/03 08:18:09;;;;;;;3.85;1.80;;;;;;;21.62;52.79;101690.22;5037684;28;20042;-77
2022/07/03 08:20:37;;;;;;;4.15;1.80;;;;;;;21.66;53.68;101692.63;5039545;28;20041;-78
2022/07/03 08:23:05;;;;;;;3.65;1.05;;;;;;;21.72;52.84;101692.22;5035286;28;20047;-78
2022/07/03 08:25:33;;;;;;;4.32;1.17;;;;;;;21.78;51.70;101698.16;5043958;28;20046;-79
2022/07/03 08:28:00;;;;;;;2.65;1.05;;;;;;;21.78;50.79;101693.66;5039559;28;20040;-78
2022/07/03 08:30:28;;;;;;;3.80;1.10;;;;;;;21.76;50.57;101692.03;5048522;28;20107;-78
2022/07/03 08:32:57;;;;;;;3.78;1.30;;;;;;;21.76;50.90;101697.41;5048307;28;20052;-78
2022/07/03 08:35:25;;;;;;;3.05;1.23;;;;;;;21.80;49.64;101697.09;5046022;28;20119;-78
2022/07/03 08:37:53;;;;;;;2.83;0.90;;;;;;;21.88;49.87;101694.78;5047958;28;20076;-78
2022/07/03 08:40:22;;;;;;;3.33;1.20;;;;;;;21.95;49.11;101699.75;5048025;28;20099;-79
2022/07/03 08:42:55;;;;;;;7.90;1.30;;;;;;;22.01;49.51;101692.16;5043998;28;20057;-76
2022/07/03 08:45:25;;;;;;;4.35;1.30;;;;;;;22.08;49.70;101683.69;5047316;28;20182;-81
2022/07/03 08:47:59;;;;;;;3.17;1.20;;;;;;;22.23;49.76;101681.81;5047084;28;20041;-80
2022/07/03 08:50:31;;;;;;;3.53;1.60;;;;;;;22.34;49.72;101687.34;5042494;28;20524;-77
2022/07/03 08:53:00;;;;;;;6.38;1.70;;;;;;;22.41;48.87;101680.63;5042689;28;20125;-80
2022/07/03 08:55:27;;;;;;;5.72;1.73;;;;;;;22.49;49.05;101689.00;5045620;28;20096;-79
2022/07/03 08:58:02;;;;;;;5.40;2.15;;;;;;;22.54;49.74;101685.16;5042741;28;20069;-79
2022/07/03 09:00:31;;;;;;;4.80;2.40;;;;;;;22.55;49.95;101682.38;5032698;28;20132;-79
2022/07/03 09:03:00;;;;;;;3.92;2.08;;;;;;;22.59;48.72;101693.75;5038673;28;20088;-79
2022/07/03 09:05:27;;;;;;;4.25;1.85;;;;;;;22.62;48.10;101683.69;5044016;28;20496;-78
2022/07/03 09:07:58;;;;;;;3.67;1.75;;;;;;;22.66;47.86;101678.97;5043252;28;20134;-78
2022/07/03 09:10:26;;;;;;;5.40;1.80;;;;;;;22.75;47.73;101675.66;5036584;28;20468;-79
2022/07/03 09:12:54;;;;;;;4.85;1.40;;;;;;;22.82;47.93;101678.78;5044884;28;20095;-77
2022/07/03 09:15:23;;;;;;;2.70;1.00;;;;;;;22.91;47.50;101688.00;5040204;28;20046;-77
2022/07/03 09:18:05;;;;;;;3.30;1.30;;;;;;;23.04;47.02;101679.97;5043811;28;20567;-79
2022/07/03 09:20:40;;;;;;;3.17;1.00;;;;;;;23.10;45.60;101674.16;5046887;28;20038;-76
2022/07/03 09:23:17;;;;;;;2.03;0.90;;;;;;;23.16;45.11;101686.28;5046302;28;20057;-74
2022/07/03 09:26:04;;;;;;;1.83;1.23;;;;;;;23.30;45.15;101679.97;5040977;28;20048;-77
2022/07/03 09:28:44;;;;;;;4.78;1.20;;;;;;;23.31;45.29;101679.00;5045236;28;20037;-79
2022/07/03 09:31:15;;;;;;;2.05;1.20;;;;;;;23.26;45.44;101676.66;5047827;28;20128;-77
2022/07/03 09:33:54;;;;;;;1.77;1.00;;;;;;;23.23;46.02;101674.16;5042879;28;20050;-77
2022/07/03 09:36:40;;;;;;;2.75;0.90;;;;;;;23.29;44.12;101680.94;5037230;28;20600;-78
2022/07/03 09:39:31;;;;;;;4.35;1.02;;;;;;;23.34;45.31;101684.16;5037879;28;20037;-77
2022/07/03 09:42:19;;;;;;;3.95;1.35;;;;;;;23.44;44.78;101682.53;5038452;28;20536;-77
2022/07/03 09:44:47;;;;;;;3.60;1.35;;;;;;;23.53;44.64;101687.25;5040943;28;20041;-76
2022/07/03 09:47:21;;;;;;;3.33;1.10;;;;;;;23.56;45.28;101683.47;5039871;28;20052;-78
2022/07/03 09:49:57;;;;;;;5.77;1.50;;;;;;;23.64;45.36;101682.94;5045921;28;20123;-75
2022/07/03 09:52:40;;;;;;;3.40;1.35;;;;;;;23.72;45.29;101684.06;5047755;28;20354;-75
2022/07/03 09:55:10;;;;;;;3.83;1.85;;;;;;;23.83;45.42;101685.13;5044118;28;20052;-74
2022/07/03 09:57:45;;;;;;;2.70;1.42;;;;;;;23.84;45.50;101690.41;5041175;28;20053;-75
2022/07/03 10:00:25;;;;;;;2.58;1.27;;;;;;;23.88;45.19;101691.03;5048022;28;20044;-74
2022/07/03 10:03:09;;;;;;;4.38;1.50;;;;;;;23.91;44.47;101696.19;5039488;28;20065;-75
2022/07/03 10:05:44;;;;;;;3.10;1.10;;;;;;;23.92;43.86;101691.66;5047004;28;20041;-76
2022/07/03 10:08:15;;;;;;;2.97;0.90;;;;;;;23.79;44.72;101695.25;5034171;28;20860;-78
2022/07/03 10:10:46;;;;;;;2.88;1.15;;;;;;;23.71;44.88;101701.19;5034037;28;20062;-76
2022/07/03 10:13:15;;;;;;;6.97;1.38;;;;;;;23.73;45.15;101695.72;5035157;28;20652;-76
2022/07/03 10:15:43;;;;;;;4.18;1.60;;;;;;;23.88;45.49;101699.97;5036296;28;20041;-78
2022/07/03 10:18:13;;;;;;;2.45;1.83;;;;;;;24.04;45.35;101704.25;5033781;28;20041;-77
2022/07/03 10:20:43;;;;;;;4.55;2.00;;;;;;;24.09;45.98;101702.06;5047400;28;20041;-77
2022/07/03 10:23:11;;;;;;;3.78;1.95;;;;;;;24.08;45.97;101699.50;5047946;28;20513;-76
2022/07/03 10:25:43;;;;;;;6.53;1.83;;;;;;;24.16;45.75;101700.63;5048323;28;20041;-79
2022/07/03 10:28:14;;;;;;;3.22;1.60;;;;;;;24.10;45.43;101701.09;5048425;28;20107;-81
2022/07/03 10:30:47;;;;;;;2.78;1.45;;;;;;;24.22;44.75;101690.38;5050026;28;20096;-80
2022/07/03 10:33:15;;;;;;;4.35;1.48;;;;;;;24.14;45.32;101699.91;5051763;28;20073;-80
2022/07/03 10:35:49;;;;;;;5.10;1.95;;;;;;;24.19;45.52;101705.78;5052086;28;20041;-80
2022/07/03 10:38:36;;;;;;;;;;;;;;;23.73;45.90;101711.88;5055154;28;20497;-81
2022/07/03 10:46:48;;;;;;;3.63;1.52;;;;;;;24.13;46.56;101711.66;5054273;28;20072;-80
2022/07/03 10:49:18;;;;;;;4.85;1.60;;;;;;;24.24;46.10;101705.44;5053823;28;20045;-81
2022/07/03 10:51:45;;;;;;;4.28;1.70;;;;;;;24.41;45.91;101712.28;5054850;28;20068;-80
2022/07/03 10:54:27;;;;;;;3.25;1.40;;;;;;;24.61;44.11;101712.59;5054770;28;20049;-80
2022/07/03 10:57:00;;;;;;;4.82;1.00;;;;;;;24.62;44.38;101708.91;5054899;28;20421;-80
2022/07/03 10:59:45;;;;;;;3.78;1.25;;;;;;;24.65;45.24;101700.59;5054945;28;20091;-80
2022/07/03 11:02:40;;;;;;;3.50;1.50;;;;;;;24.50;44.77;101706.19;5055189;28;20045;-81
2022/07/03 11:05:24;;;;;;;1.83;1.20;;;;;;;24.36;45.20;101714.47;5054597;28;20037;-79
2022/07/03 11:07:51;;;;;;;3.22;1.50;;;;;;;24.49;45.39;101711.69;5054549;28;20053;-80
2022/07/03 11:10:18;;;;;;;4.03;1.42;;;;;;;24.80;45.23;101712.06;5054593;28;20041;-80
2022/07/03 11:13:09;;;;;;;1.58;1.10;;;;;;;25.00;43.85;101710.50;5055166;28;20069;-80
2022/07/03 11:15:47;;;;;;;2.13;1.35;;;;;;;24.99;44.68;101706.09;5054565;28;20040;-80
2022/07/03 11:18:30;;;;;;;4.43;1.48;;;;;;;25.04;43.98;101709.31;5053100;28;20512;-79
2022/07/03 11:21:24;;;;;;;4.78;1.80;;;;;;;25.18;44.11;101705.50;5053855;28;20060;-80
2022/07/03 11:24:09;;;;;;;3.15;1.60;;;;;;;25.31;44.17;101702.69;5054849;28;20492;-79
2022/07/03 11:26:37;;;;;;;2.33;1.40;;;;;;;25.35;43.24;101696.06;5068542;28;20107;-80
2022/07/03 11:29:06;;;;;;;6.40;1.80;;;;;;;25.19;42.85;101701.84;5047919;28;20046;-81
2022/07/03 11:31:35;;;;;;;3.75;1.15;;;;;;;25.05;43.27;101693.97;5049373;28;20072;-80
2022/07/03 11:34:05;;;;;;;3.33;1.38;;;;;;;25.38;42.34;101703.94;5045977;28;20046;-79
2022/07/03 11:36:38;;;;;;;2.38;1.38;;;;;;;25.62;42.51;101696.72;5034207;28;20151;-79
2022/07/03 11:39:09;;;;;;;5.88;1.40;;;;;;;25.69;40.74;101690.66;5044291;28;20072;-79
2022/07/03 11:41:36;;;;;;;1.90;1.20;;;;;;;25.48;41.16;101695.97;5052764;28;20072;-79
2022/07/03 11:44:07;;;;;;;2.17;1.00;;;;;;;25.63;40.97;101695.72;5051589;28;20046;-79
2022/07/03 11:46:38;;;;;;;1.88;1.00;;;;;;;25.77;41.23;101686.50;5036154;28;20065;-79
2022/07/03 11:49:09;;;;;;;4.20;1.05;;;;;;;25.79;40.93;101688.09;5034114;28;20041;-81
2022/07/03 11:51:42;;;;;;;4.30;1.40;;;;;;;25.54;40.60;101692.78;5048989;28;20124;-81
2022/07/03 11:54:09;;;;;;;4.15;1.10;;;;;;;25.52;41.27;101693.88;5052645;28;20143;-79
2022/07/03 11:56:38;;;;;;;4.20;1.35;;;;;;;25.42;41.94;101683.00;5052741;28;20073;-79
2022/07/03 11:59:06;;;;;;;3.53;1.25;;;;;;;25.16;41.57;101691.28;5051228;28;20878;-80
2022/07/03 12:01:36;;;;;;;3.53;1.45;;;;;;;24.95;42.72;101693.84;5044814;28;20040;-76